createdAt,value
2022-12-11T00:02:16.806Z,96317.97
2022-12-11T00:05:02.383Z,96314.72
2022-12-11T00:07:48.198Z,96321.94
2022-12-11T00:10:37.668Z,96315.09
2022-12-11T00:13:24.297Z,96313.84
2022-12-11T00:16:10.559Z,96307.41
2022-12-11T00:18:56.453Z,96305.78
2022-12-11T00:21:41.693Z,96299.53
2022-12-11T00:24:27.070Z,96304.88
2022-12-11T00:27:15.471Z,96297.00
2022-12-11T00:30:01.023Z,96301.56
2022-12-11T00:32:46.856Z,96315.22
2022-12-11T00:35:32.297Z,96319.59
2022-12-11T00:38:20.826Z,96314.59
2022-12-11T00:41:06.394Z,96318.34
2022-12-11T00:43:52.228Z,96316.75
2022-12-11T00:46:38.735Z,96323.94
2022-12-11T00:49:24.192Z,96324.28
2022-12-11T00:52:10.927Z,96319.53
2022-12-11T00:54:56.629Z,96316.13
2022-12-11T00:57:42.139Z,96322.47
2022-12-11T01:00:27.997Z,96323.28
2022-12-11T01:03:15.053Z,96334.69
2022-12-11T01:06:00.618Z,96343.47
2022-12-11T01:08:46.711Z,96343.47
2022-12-11T01:11:32.052Z,96351.28
2022-12-11T01:14:17.658Z,96355.69
2022-12-11T01:17:03.307Z,96355.69
2022-12-11T01:19:48.497Z,96355.84
2022-12-11T01:22:34.048Z,96349.03
2022-12-11T01:25:19.727Z,96359.44
2022-12-11T01:28:06.882Z,96368.22
2022-12-11T01:30:52.417Z,96366.63
2022-12-11T01:33:38.561Z,96373.63
2022-12-11T01:36:24.518Z,96367.97
2022-12-11T01:39:10.300Z,96365.97
2022-12-11T01:42:00.344Z,96370.19
2022-12-11T01:44:48.566Z,96368.13
2022-12-11T01:47:33.756Z,96371.53
2022-12-11T01:50:19.536Z,96363.56
2022-12-11T01:53:08.211Z,96359.34
2022-12-11T01:55:56.358Z,96355.94
2022-12-11T01:58:51.608Z,96363.22
2022-12-11T02:01:51.180Z,96355.94
2022-12-11T02:04:39.085Z,96358.16
2022-12-11T02:07:24.790Z,96356.56
2022-12-11T02:10:12.286Z,96352.16
2022-12-11T02:13:05.821Z,96359.34
2022-12-11T02:16:17.597Z,96354.97
2022-12-11T02:19:18.210Z,96344.56
2022-12-11T02:22:08.965Z,96350.75
2022-12-11T02:25:11.024Z,96345.72
2022-12-11T02:28:38.519Z,96350.09
2022-12-11T02:31:24.028Z,96354.50
2022-12-11T02:34:21.295Z,96343.81
2022-12-11T02:37:18.293Z,96348.84
2022-12-11T02:40:08.341Z,96342.81
2022-12-11T02:42:56.499Z,96343.66
2022-12-11T02:45:44.110Z,96342.81
2022-12-11T02:48:33.940Z,96344.00
2022-12-11T02:51:24.583Z,96343.19
2022-12-11T02:54:20.951Z,96336.19
2022-12-11T02:57:16.374Z,96353.16
2022-12-11T03:00:02.071Z,96353.78
2022-12-11T03:02:47.758Z,96360.56
2022-12-11T03:05:33.382Z,96359.59
2022-12-11T03:08:18.875Z,96357.38
2022-12-11T03:11:11.996Z,96353.16
2022-12-11T03:13:57.506Z,96341.13
2022-12-11T03:16:52.294Z,96351.53
2022-12-11T03:19:53.260Z,96346.66
2022-12-11T03:22:38.925Z,96349.63
2022-12-11T03:26:02.439Z,96344.63
2022-12-11T03:28:56.454Z,96344.25
2022-12-11T03:32:04.884Z,96343.47
2022-12-11T03:35:03.608Z,96350.63
2022-12-11T03:37:53.216Z,96345.78
2022-12-11T03:40:42.282Z,96348.53
2022-12-11T03:43:30.634Z,96343.00
2022-12-11T03:46:21.241Z,96344.78
2022-12-11T03:49:13.487Z,96346.31
2022-12-11T03:52:01.238Z,96342.53
2022-12-11T03:54:49.694Z,96342.53
2022-12-11T03:57:37.814Z,96351.31
2022-12-11T04:00:23.522Z,96344.50
2022-12-11T04:03:14.992Z,96346.50
2022-12-11T04:06:00.640Z,96355.28
2022-12-11T04:08:46.253Z,96361.44
2022-12-11T04:11:34.524Z,96361.63
2022-12-11T04:14:42.269Z,96364.38
2022-12-11T04:17:47.104Z,96356.78
2022-12-11T04:20:51.389Z,96362.75
2022-12-11T04:23:55.029Z,96364.75
2022-12-11T04:26:41.467Z,96361.31
2022-12-11T04:29:27.011Z,96358.72
2022-12-11T04:32:12.615Z,96359.56
2022-12-11T04:34:58.158Z,96354.34
2022-12-11T04:37:43.997Z,96358.56
2022-12-11T04:40:29.898Z,96352.72
2022-12-11T04:43:15.162Z,96349.50
2022-12-11T04:46:06.162Z,96345.28
2022-12-11T04:48:57.394Z,96344.03
2022-12-11T04:51:43.774Z,96332.00
2022-12-11T04:54:35.165Z,96332.19
2022-12-11T04:57:21.658Z,96335.94
2022-12-11T05:00:09.545Z,96329.31
2022-12-11T05:02:54.773Z,96337.25
2022-12-11T05:05:40.219Z,96328.84
2022-12-11T05:08:27.467Z,96341.19
2022-12-11T05:11:15.561Z,96332.75
2022-12-11T05:14:01.064Z,96327.94
2022-12-11T05:16:49.733Z,96330.06
2022-12-11T05:19:34.920Z,96320.00
2022-12-11T05:22:20.531Z,96319.41
2022-12-11T05:25:06.946Z,96318.94
2022-12-11T05:27:52.450Z,96314.72
2022-12-11T05:30:37.950Z,96316.69
2022-12-11T05:33:23.285Z,96318.66
2022-12-11T05:36:37.635Z,96318.81
2022-12-11T05:39:23.214Z,96326.50
2022-12-11T05:42:08.618Z,96328.13
2022-12-11T05:44:53.868Z,96328.28
2022-12-11T05:47:39.212Z,96325.84
2022-12-11T05:50:24.741Z,96327.66
2022-12-11T05:53:10.141Z,96329.63
2022-12-11T05:56:00.917Z,96327.81
2022-12-11T05:58:47.143Z,96326.22
2022-12-11T06:01:40.969Z,96317.59
2022-12-11T06:04:26.577Z,96328.81
2022-12-11T06:07:13.618Z,96333.19
2022-12-11T06:09:58.981Z,96332.38
2022-12-11T06:12:44.573Z,96324.94
2022-12-11T06:15:30.071Z,96323.31
2022-12-11T06:18:15.680Z,96324.94
2022-12-11T06:21:00.847Z,96326.72
2022-12-11T06:23:47.590Z,96328.34
2022-12-11T06:26:33.281Z,96323.31
2022-12-11T06:29:18.904Z,96323.50
2022-12-11T06:32:04.252Z,96326.91
2022-12-11T06:34:49.660Z,96321.72
2022-12-11T06:37:36.356Z,96327.38
2022-12-11T06:40:22.346Z,96330.13
2022-12-11T06:43:07.896Z,96335.31
2022-12-11T06:45:53.410Z,96340.41
2022-12-11T06:48:44.760Z,96341.72
2022-12-11T06:51:31.319Z,96343.84
2022-12-11T06:54:16.733Z,96345.00
2022-12-11T06:57:02.099Z,96355.91
2022-12-11T06:59:47.671Z,96353.63
2022-12-11T07:02:36.166Z,96356.59
2022-12-11T07:05:21.671Z,96352.69
2022-12-11T07:08:07.580Z,96355.31
2022-12-11T07:10:53.007Z,96355.84
2022-12-11T07:13:38.867Z,96366.72
2022-12-11T07:16:25.012Z,96371.63
2022-12-11T07:19:11.152Z,96360.91
2022-12-11T07:21:56.650Z,96369.38
2022-12-11T07:24:42.199Z,96374.25
2022-12-11T07:27:27.280Z,96369.75
2022-12-11T07:30:13.180Z,96371.69
2022-12-11T07:32:58.650Z,96375.28
2022-12-11T07:35:44.347Z,96373.00
2022-12-11T07:38:29.565Z,96368.47
2022-12-11T07:41:16.371Z,96376.38
2022-12-11T07:44:03.320Z,96378.16
2022-12-11T07:46:48.799Z,96378.31
2022-12-11T07:49:34.145Z,96378.16
2022-12-11T07:52:19.595Z,96380.41
2022-12-11T07:55:05.540Z,96373.75
2022-12-11T07:57:51.039Z,96377.44
2022-12-11T08:00:36.422Z,96373.19
2022-12-11T08:03:21.840Z,96369.41
2022-12-11T08:06:07.334Z,96376.34
2022-12-11T08:08:54.542Z,96381.34
2022-12-11T08:11:40.461Z,96377.53
2022-12-11T08:14:26.149Z,96378.16
2022-12-11T08:17:11.342Z,96378.72
2022-12-11T08:19:57.330Z,96376.09
2022-12-11T08:22:42.733Z,96371.00
2022-12-11T08:25:28.198Z,96371.75
2022-12-11T08:28:13.823Z,96369.28
2022-12-11T08:30:59.820Z,96367.22
2022-12-11T08:33:46.156Z,96365.72
2022-12-11T08:36:31.157Z,96368.59
2022-12-11T08:39:16.462Z,96371.66
2022-12-11T08:42:01.932Z,96373.09
2022-12-11T08:44:47.427Z,96372.13
2022-12-11T08:47:32.932Z,96375.34
2022-12-11T08:50:18.300Z,96378.75
2022-12-11T08:53:04.251Z,96381.03
2022-12-11T08:55:49.699Z,96369.47
2022-12-11T08:58:35.962Z,96379.84
2022-12-11T09:01:24.840Z,96380.78
2022-12-11T09:04:10.521Z,96377.19
2022-12-11T09:06:55.926Z,96387.94
2022-12-11T09:09:41.417Z,96391.50
2022-12-11T09:12:28.832Z,96379.50
2022-12-11T09:15:14.632Z,96377.72
2022-12-11T09:17:59.989Z,96380.31
2022-12-11T09:20:45.433Z,96375.13
2022-12-11T09:23:30.774Z,96375.91
2022-12-11T09:26:20.234Z,96376.72
2022-12-11T09:29:06.919Z,96371.53
2022-12-11T09:31:52.577Z,96365.50
2022-12-11T09:34:38.170Z,96380.41
2022-12-11T09:37:23.524Z,96378.06
2022-12-11T09:40:12.300Z,96367.97
2022-12-11T09:43:06.814Z,96368.41
2022-12-11T09:45:52.164Z,96364.66
2022-12-11T09:48:39.943Z,96361.41
2022-12-11T09:51:47.503Z,96359.78
2022-12-11T09:54:33.522Z,96361.59
2022-12-11T09:57:48.618Z,96363.03
2022-12-11T10:00:48.061Z,96353.16
2022-12-11T10:03:36.312Z,96351.84
2022-12-11T10:06:38.327Z,96354.59
2022-12-11T10:09:36.167Z,96346.19
2022-12-11T10:12:30.564Z,96351.91
2022-12-11T10:15:19.139Z,96349.84
2022-12-11T10:18:10.082Z,96348.59
2022-12-11T10:20:57.203Z,96353.34
2022-12-11T10:23:53.802Z,96350.63
2022-12-11T10:26:39.966Z,96346.25
2022-12-11T10:29:25.361Z,96335.66
2022-12-11T10:32:24.653Z,96341.66
2022-12-11T10:35:18.475Z,96334.50
2022-12-11T10:38:27.596Z,96333.16
2022-12-11T10:41:18.171Z,96332.34
2022-12-11T10:44:34.857Z,96320.78
2022-12-11T10:47:20.048Z,96316.56
2022-12-11T10:50:05.881Z,96318.91
2022-12-11T10:52:53.201Z,96311.81
2022-12-11T10:55:45.440Z,96309.59
2022-12-11T10:58:34.482Z,96311.16
2022-12-11T11:01:29.791Z,96307.31
2022-12-11T11:04:21.137Z,96307.31
2022-12-11T11:07:13.700Z,96306.34
2022-12-11T11:10:11.387Z,96289.56
2022-12-11T11:13:01.363Z,96287.59
2022-12-11T11:15:47.144Z,96286.78
2022-12-11T11:18:33.784Z,96279.16
2022-12-11T11:21:21.486Z,96270.47
2022-12-11T11:24:06.889Z,96278.00
2022-12-11T11:30:08.353Z,96271.44
2022-12-11T11:33:11.209Z,96265.63
2022-12-11T11:36:06.659Z,96257.47
2022-12-11T11:39:17.090Z,96253.06
2022-12-11T11:42:29.934Z,96247.72
2022-12-11T11:45:35.071Z,96255.13
2022-12-11T11:48:45.435Z,96239.19
2022-12-11T11:51:36.273Z,96240.44
2022-12-11T11:54:43.139Z,96235.88
2022-12-11T11:57:37.636Z,96238.75
2022-12-11T12:00:30.356Z,96220.97
2022-12-11T12:03:21.849Z,96221.44
2022-12-11T12:06:14.865Z,96224.47
2022-12-11T12:09:09.282Z,96224.72
2022-12-11T12:12:22.741Z,96222.56
2022-12-11T12:15:29.825Z,96214.69
2022-12-11T12:18:18.462Z,96226.66
2022-12-11T12:21:27.785Z,96221.91
2022-12-11T12:24:45.585Z,96221.38
2022-12-11T12:27:52.215Z,96221.03
2022-12-11T12:30:56.829Z,96214.38
2022-12-11T12:34:03.202Z,96220.28
2022-12-11T12:37:17.433Z,96219.06
2022-12-11T12:40:24.907Z,96219.59
2022-12-11T12:43:47.682Z,96212.78
2022-12-11T12:47:05.879Z,96211.78
2022-12-11T12:49:55.657Z,96213.22
2022-12-11T12:52:42.298Z,96204.44
2022-12-11T12:55:31.839Z,96205.84
2022-12-11T12:58:28.617Z,96206.31
2022-12-11T13:01:25.899Z,96204.97
2022-12-11T13:04:56.124Z,96203.59
2022-12-11T13:07:54.204Z,96197.03
2022-12-11T13:10:43.485Z,96194.25
2022-12-11T13:13:37.349Z,96201.88
2022-12-11T13:16:26.960Z,96202.31
2022-12-11T13:19:27.580Z,96198.91
2022-12-11T13:22:12.792Z,96201.13
2022-12-11T13:25:01.839Z,96204.97
2022-12-11T13:27:47.379Z,96203.00
2022-12-11T13:30:32.977Z,96209.00
2022-12-11T13:33:19.253Z,96204.63
2022-12-11T13:36:16.725Z,96204.63
2022-12-11T13:39:24.099Z,96210.81
2022-12-11T13:42:27.306Z,96212.63
2022-12-11T13:45:38.033Z,96211.34
2022-12-11T13:48:28.972Z,96220.88
2022-12-11T13:51:22.916Z,96215.81
2022-12-11T13:54:18.193Z,96213.13
2022-12-11T13:57:17.685Z,96223.91
2022-12-11T14:00:04.484Z,96231.88
2022-12-11T14:02:51.955Z,96226.06
2022-12-11T14:05:37.097Z,96231.28
2022-12-11T14:08:34.284Z,96230.19
2022-12-11T14:11:35.769Z,96237.34
2022-12-11T14:14:47.830Z,96241.13
2022-12-11T14:17:36.288Z,96239.09
2022-12-11T14:20:25.848Z,96234.06
2022-12-11T14:23:20.492Z,96241.59
2022-12-11T14:26:22.511Z,96242.31
2022-12-11T14:29:07.731Z,96247.25
2022-12-11T14:31:54.395Z,96245.81
2022-12-11T14:34:45.455Z,96250.13
2022-12-11T14:37:31.979Z,96249.88
2022-12-11T14:40:20.259Z,96249.41
2022-12-11T14:43:13.250Z,96250.72
2022-12-11T14:46:02.907Z,96254.69
2022-12-11T14:49:00.618Z,96255.03
2022-12-11T14:51:48.209Z,96261.38
2022-12-11T14:54:45.159Z,96252.16
2022-12-11T14:57:33.223Z,96257.72
2022-12-11T15:00:24.802Z,96248.03
2022-12-11T15:03:10.049Z,96254.38
2022-12-11T15:05:57.881Z,96258.78
2022-12-11T15:08:43.629Z,96257.34
2022-12-11T15:11:32.566Z,96261.88
2022-12-11T15:14:22.711Z,96261.81
2022-12-11T15:17:14.710Z,96258.22
2022-12-11T15:20:09.235Z,96265.38
2022-12-11T15:22:58.995Z,96267.69
2022-12-11T15:25:54.981Z,96269.31
2022-12-11T15:28:40.875Z,96264.13
2022-12-11T15:31:29.330Z,96267.06
2022-12-11T15:34:23.987Z,96267.56
2022-12-11T15:37:24.606Z,96261.81
2022-12-11T15:40:11.404Z,96262.63
2022-12-11T15:42:57.962Z,96259.75
2022-12-11T15:45:43.568Z,96263.31
2022-12-11T15:48:29.275Z,96264.47
2022-12-11T15:51:15.683Z,96267.59
2022-12-11T15:54:02.363Z,96276.00
2022-12-11T15:56:48.116Z,96275.38
2022-12-11T15:59:34.742Z,96266.78
2022-12-11T16:02:20.619Z,96280.09
2022-12-11T16:05:06.546Z,96278.66
2022-12-11T16:07:54.119Z,96275.91
2022-12-11T16:10:40.067Z,96276.34
2022-12-11T16:13:25.871Z,96278.16
2022-12-11T16:16:11.740Z,96280.28
2022-12-11T16:18:57.319Z,96275.91
2022-12-11T16:21:42.852Z,96276.69
2022-12-11T16:24:28.766Z,96271.84
2022-12-11T16:27:18.580Z,96280.97
2022-12-11T16:30:07.967Z,96279.53
2022-12-11T16:32:53.869Z,96289.25
2022-12-11T16:35:39.628Z,96281.31
2022-12-11T16:38:24.978Z,96285.88
2022-12-11T16:41:10.740Z,96288.78
2022-12-11T16:43:56.122Z,96277.63
2022-12-11T16:46:43.443Z,96287.81
2022-12-11T16:49:31.213Z,96290.09
2022-12-11T16:52:21.962Z,96288.78
2022-12-11T16:55:08.810Z,96286.28
2022-12-11T16:57:55.228Z,96287.56
2022-12-11T17:00:40.346Z,96286.47
2022-12-11T17:03:25.832Z,96281.63
2022-12-11T17:06:15.140Z,96272.88
2022-12-11T17:09:00.908Z,96276.78
2022-12-11T17:11:47.102Z,96282.13
2022-12-11T17:14:32.511Z,96276.47
2022-12-11T17:17:18.325Z,96279.25
2022-12-11T17:20:04.268Z,96279.59
2022-12-11T17:22:53.397Z,96281.19
2022-12-11T17:25:43.129Z,96285.75
2022-12-11T17:28:29.722Z,96284.13
2022-12-11T17:31:18.210Z,96280.91
2022-12-11T17:34:04.452Z,96287.88
2022-12-11T17:36:50.049Z,96288.06
2022-12-11T17:39:36.865Z,96288.06
2022-12-11T17:42:22.293Z,96286.75
2022-12-11T17:45:07.932Z,96287.72
2022-12-11T17:47:53.662Z,96286.09
2022-12-11T17:50:47.278Z,96288.69
2022-12-11T17:53:33.099Z,96292.28
2022-12-11T17:56:18.616Z,96298.28
2022-12-11T17:59:04.725Z,96300.06
2022-12-11T18:01:49.953Z,96295.69
2022-12-11T18:04:38.603Z,96302.66
2022-12-11T18:07:25.326Z,96301.84
2022-12-11T18:10:10.820Z,96311.25
2022-12-11T18:12:56.282Z,96313.84
2022-12-11T18:15:42.069Z,96320.00
2022-12-11T18:18:29.678Z,96306.41
2022-12-11T18:21:19.539Z,96313.72
2022-12-11T18:24:05.646Z,96314.03
2022-12-11T18:26:51.433Z,96315.97
2022-12-11T18:29:38.665Z,96318.09
2022-12-11T18:32:24.225Z,96317.28
2022-12-11T18:35:11.302Z,96319.09
2022-12-11T18:37:57.342Z,96312.44
2022-12-11T18:40:42.515Z,96308.25
2022-12-11T18:43:27.988Z,96313.56
2022-12-11T18:46:16.040Z,96318.94
2022-12-11T18:49:01.500Z,96308.25
2022-12-11T18:51:46.945Z,96309.03
2022-12-11T18:54:32.529Z,96311.63
2022-12-11T18:57:18.169Z,96311.81
2022-12-11T19:00:07.521Z,96316.50
2022-12-11T19:02:53.230Z,96313.25
2022-12-11T19:05:42.461Z,96315.03
2022-12-11T19:08:27.925Z,96318.63
2022-12-11T19:11:18.536Z,96315.38
2022-12-11T19:14:05.635Z,96307.91
2022-12-11T19:16:51.493Z,96307.28
2022-12-11T19:19:37.812Z,96310.69
2022-12-11T19:22:23.852Z,96312.47
2022-12-11T19:25:09.978Z,96317.66
2022-12-11T19:27:57.423Z,96317.97
2022-12-11T19:30:48.928Z,96323.50
2022-12-11T19:33:34.404Z,96323.81
2022-12-11T19:36:22.945Z,96324.00
2022-12-11T19:39:12.985Z,96320.59
2022-12-11T19:41:59.499Z,96319.00
2022-12-11T19:44:45.397Z,96319.13
2022-12-11T19:47:31.147Z,96310.72
2022-12-11T19:50:18.160Z,96309.91
2022-12-11T19:53:05.128Z,96308.28
2022-12-11T19:55:53.361Z,96308.28
2022-12-11T19:58:39.692Z,96308.47
2022-12-11T20:01:29.678Z,96306.69
2022-12-11T20:04:16.927Z,96310.41
2022-12-11T20:07:03.346Z,96300.03
2022-12-11T20:09:49.285Z,96310.75
2022-12-11T20:12:34.794Z,96307.34
2022-12-11T20:15:21.475Z,96308.31
2022-12-11T20:18:06.977Z,96313.66
2022-12-11T20:20:54.916Z,96309.13
2022-12-11T20:23:43.306Z,96313.50
2022-12-11T20:26:31.722Z,96310.91
2022-12-11T20:29:17.993Z,96316.25
2022-12-11T20:32:05.771Z,96315.44
2022-12-11T20:34:55.829Z,96314.66
2022-12-11T20:37:43.750Z,96307.84
2022-12-11T20:40:30.235Z,96312.19
2022-12-11T20:43:16.024Z,96318.34
2022-12-11T20:46:01.959Z,96308.97
2022-12-11T20:48:49.490Z,96306.53
2022-12-11T20:51:35.463Z,96305.09
2022-12-11T20:54:21.512Z,96306.06
2022-12-11T20:57:07.395Z,96310.44
2022-12-11T20:59:53.263Z,96312.53
2022-12-11T21:02:39.061Z,96316.41
2022-12-11T21:05:24.546Z,96320.00
2022-12-11T21:08:13.716Z,96307.19
2022-12-11T21:10:59.428Z,96302.34
2022-12-11T21:13:44.864Z,96304.13
2022-12-11T21:16:30.889Z,96318.06
2022-12-11T21:19:17.227Z,96314.81
2022-12-11T21:22:03.065Z,96310.59
2022-12-11T21:24:48.757Z,96305.44
2022-12-11T21:27:34.535Z,96317.72
2022-12-11T21:30:21.327Z,96302.19
2022-12-11T21:33:07.146Z,96307.72
2022-12-11T21:35:59.271Z,96304.47
2022-12-11T21:38:46.366Z,96312.41
2022-12-11T21:41:31.826Z,96306.41
2022-12-11T21:47:22.543Z,96309.00
2022-12-11T21:50:08.101Z,96306.06
2022-12-11T21:52:53.151Z,96302.19
2022-12-11T21:55:42.764Z,96307.88
2022-12-11T21:58:28.292Z,96302.19
2022-12-11T22:01:17.196Z,96309.47
2022-12-11T22:04:03.197Z,96313.19
2022-12-11T22:06:48.599Z,96305.94
2022-12-11T22:09:33.865Z,96307.03
2022-12-11T22:12:26.185Z,96306.56
2022-12-11T22:15:12.108Z,96306.88
2022-12-11T22:17:57.867Z,96317.91
2022-12-11T22:20:43.564Z,96311.56
2022-12-11T22:23:31.234Z,96313.84
2022-12-11T22:26:18.191Z,96322.88
2022-12-11T22:29:03.790Z,96321.56
2022-12-11T22:31:49.305Z,96325.47
2022-12-11T22:34:35.108Z,96321.72
2022-12-11T22:37:20.714Z,96323.97
2022-12-11T22:40:06.471Z,96321.56
2022-12-11T22:42:51.603Z,96320.88
2022-12-11T22:45:40.629Z,96316.00
2022-12-11T22:48:27.451Z,96315.38
2022-12-11T22:51:13.579Z,96321.19
2022-12-11T22:53:58.983Z,96324.06
2022-12-11T22:56:44.368Z,96316.16
2022-12-11T22:59:29.900Z,96325.03
2022-12-11T23:02:15.806Z,96323.75
2022-12-11T23:05:01.323Z,96331.78
2022-12-11T23:07:47.229Z,96322.75
2022-12-11T23:10:32.948Z,96324.66
2022-12-11T23:13:18.355Z,96330.31
2022-12-11T23:16:04.000Z,96338.22
2022-12-11T23:18:54.655Z,96335.13
2022-12-11T23:21:40.312Z,96334.31
2022-12-11T23:24:26.091Z,96331.06
2022-12-11T23:27:11.737Z,96341.06
2022-12-11T23:29:57.208Z,96340.41
2022-12-11T23:32:42.674Z,96343.00
2022-12-11T23:35:31.054Z,96346.41
2022-12-11T23:38:17.773Z,96338.81
2022-12-11T23:41:04.629Z,96351.88
2022-12-11T23:43:50.291Z,96348.66
2022-12-11T23:46:35.727Z,96356.53
2022-12-11T23:49:24.207Z,96351.69
2022-12-11T23:52:11.835Z,96354.44
2022-12-11T23:54:56.927Z,96357.81
2022-12-11T23:57:44.303Z,96347.47
